sensor_id;sensor_type;location;lat;lon;timestamp;temperature;humidity
2849;DHT22;59355;52.416;13.412;2022-08-19T00:02:20;20.70;99.90
2849;DHT22;59355;52.416;13.412;2022-08-19T00:05:07;20.80;99.90
2849;DHT22;59355;52.416;13.412;2022-08-19T00:07:53;20.60;99.90
2849;DHT22;59355;52.416;13.412;2022-08-19T00:10:40;20.70;99.90
2849;DHT22;59355;52.416;13.412;2022-08-19T00:13:26;20.70;99.90
2849;DHT22;59355;52.416;13.412;2022-08-19T00:16:15;20.60;99.90
2849;DHT22;59355;52.416;13.412;2022-08-19T00:19:03;20.60;99.90
2849;DHT22;59355;52.416;13.412;2022-08-19T00:21:50;20.60;99.90
2849;DHT22;59355;52.416;13.412;2022-08-19T00:24:37;20.70;99.90
2849;DHT22;59355;52.416;13.412;2022-08-19T00:27:24;20.70;99.90
2849;DHT22;59355;52.416;13.412;2022-08-19T00:30:11;20.80;99.90
2849;DHT22;59355;52.416;13.412;2022-08-19T00:32:58;20.80;99.90
2849;DHT22;59355;52.416;13.412;2022-08-19T00:35:44;20.80;99.90
2849;DHT22;59355;52.416;13.412;2022-08-19T00:38:30;20.70;99.90
2849;DHT22;59355;52.416;13.412;2022-08-19T00:41:19;20.60;99.90
2849;DHT22;59355;52.416;13.412;2022-08-19T00:44:13;20.60;99.90
2849;DHT22;59355;52.416;13.412;2022-08-19T00:47:00;20.50;99.90
2849;DHT22;59355;52.416;13.412;2022-08-19T00:49:56;20.60;99.90
2849;DHT22;59355;52.416;13.412;2022-08-19T00:52:46;20.70;99.90
2849;DHT22;59355;52.416;13.412;2022-08-19T00:55:33;20.70;99.90
2849;DHT22;59355;52.416;13.412;2022-08-19T00:58:21;20.70;99.90
2849;DHT22;59355;52.416;13.412;2022-08-19T01:01:08;20.70;99.90
2849;DHT22;59355;52.416;13.412;2022-08-19T01:03:54;20.70;99.90
2849;DHT22;59355;52.416;13.412;2022-08-19T01:12:26;20.50;99.90
2849;DHT22;59355;52.416;13.412;2022-08-19T01:15:14;20.60;99.90
2849;DHT22;59355;52.416;13.412;2022-08-19T01:18:12;20.60;99.90
2849;DHT22;59355;52.416;13.412;2022-08-19T01:21:03;20.70;99.90
2849;DHT22;59355;52.416;13.412;2022-08-19T01:23:52;20.60;99.90
2849;DHT22;59355;52.416;13.412;2022-08-19T01:26:41;20.60;99.90
2849;DHT22;59355;52.416;13.412;2022-08-19T01:29:28;20.60;99.90
2849;DHT22;59355;52.416;13.412;2022-08-19T01:35:06;20.40;99.90
2849;DHT22;59355;52.416;13.412;2022-08-19T01:40:42;20.20;99.90
2849;DHT22;59355;52.416;13.412;2022-08-19T01:43:28;20.30;99.90
2849;DHT22;59355;52.416;13.412;2022-08-19T01:46:14;20.10;99.90
2849;DHT22;59355;52.416;13.412;2022-08-19T01:49:03;20.00;99.90
2849;DHT22;59355;52.416;13.412;2022-08-19T01:51:50;20.00;99.90
2849;DHT22;59355;52.416;13.412;2022-08-19T01:54:37;20.00;99.90
2849;DHT22;59355;52.416;13.412;2022-08-19T01:57:23;20.00;99.90
2849;DHT22;59355;52.416;13.412;2022-08-19T02:00:12;20.00;99.90
2849;DHT22;59355;52.416;13.412;2022-08-19T02:03:00;19.80;99.90
2849;DHT22;59355;52.416;13.412;2022-08-19T02:05:46;19.80;99.90
2849;DHT22;59355;52.416;13.412;2022-08-19T02:11:24;19.60;99.90
2849;DHT22;59355;52.416;13.412;2022-08-19T02:16:59;19.60;99.90
2849;DHT22;59355;52.416;13.412;2022-08-19T02:19:45;19.60;99.90
2849;DHT22;59355;52.416;13.412;2022-08-19T02:22:32;19.80;99.90
2849;DHT22;59355;52.416;13.412;2022-08-19T02:25:18;19.80;99.90
2849;DHT22;59355;52.416;13.412;2022-08-19T02:28:05;19.70;99.90
2849;DHT22;59355;52.416;13.412;2022-08-19T02:30:51;19.60;99.90
2849;DHT22;59355;52.416;13.412;2022-08-19T02:33:38;19.70;99.90
2849;DHT22;59355;52.416;13.412;2022-08-19T02:36:25;19.30;99.90
2849;DHT22;59355;52.416;13.412;2022-08-19T02:39:11;19.90;99.90
2849;DHT22;59355;52.416;13.412;2022-08-19T02:47:36;19.70;99.90
2849;DHT22;59355;52.416;13.412;2022-08-19T02:53:11;19.70;99.90
2849;DHT22;59355;52.416;13.412;2022-08-19T02:55:58;19.70;99.90
2849;DHT22;59355;52.416;13.412;2022-08-19T02:58:44;19.70;99.90
2849;DHT22;59355;52.416;13.412;2022-08-19T03:01:32;19.80;99.90
2849;DHT22;59355;52.416;13.412;2022-08-19T03:15:28;19.70;99.90
2849;DHT22;59355;52.416;13.412;2022-08-19T03:18:15;19.70;99.90
2849;DHT22;59355;52.416;13.412;2022-08-19T03:23:55;20.30;99.90
2849;DHT22;59355;52.416;13.412;2022-08-19T03:26:46;19.60;99.90
2849;DHT22;59355;52.416;13.412;2022-08-19T03:29:38;19.50;99.90
2849;DHT22;59355;52.416;13.412;2022-08-19T03:32:25;19.50;99.90
2849;DHT22;59355;52.416;13.412;2022-08-19T03:40:46;19.50;99.90
2849;DHT22;59355;52.416;13.412;2022-08-19T03:43:37;19.60;99.90
2849;DHT22;59355;52.416;13.412;2022-08-19T03:52:00;20.00;99.90
2849;DHT22;59355;52.416;13.412;2022-08-19T03:54:46;19.50;99.90
2849;DHT22;59355;52.416;13.412;2022-08-19T03:57:33;19.70;99.90
2849;DHT22;59355;52.416;13.412;2022-08-19T04:00:22;19.50;99.90
2849;DHT22;59355;52.416;13.412;2022-08-19T04:03:08;19.60;99.90
2849;DHT22;59355;52.416;13.412;2022-08-19T04:05:55;19.60;99.90
2849;DHT22;59355;52.416;13.412;2022-08-19T04:08:43;19.50;99.90
2849;DHT22;59355;52.416;13.412;2022-08-19T04:14:20;19.40;99.90
2849;DHT22;59355;52.416;13.412;2022-08-19T04:17:07;19.70;99.90
2849;DHT22;59355;52.416;13.412;2022-08-19T04:19:55;19.50;99.90
2849;DHT22;59355;52.416;13.412;2022-08-19T04:22:41;19.50;99.90
2849;DHT22;59355;52.416;13.412;2022-08-19T04:33:55;19.60;99.90
2849;DHT22;59355;52.416;13.412;2022-08-19T04:36:43;19.70;99.90
2849;DHT22;59355;52.416;13.412;2022-08-19T04:39:30;19.70;99.90
2849;DHT22;59355;52.416;13.412;2022-08-19T04:42:49;19.70;99.90
2849;DHT22;59355;52.416;13.412;2022-08-19T04:45:36;19.80;99.90
2849;DHT22;59355;52.416;13.412;2022-08-19T04:48:23;19.80;99.90
2849;DHT22;59355;52.416;13.412;2022-08-19T04:54:01;19.90;99.90
2849;DHT22;59355;52.416;13.412;2022-08-19T04:56:49;20.10;99.90
2849;DHT22;59355;52.416;13.412;2022-08-19T04:59:37;20.40;99.90
2849;DHT22;59355;52.416;13.412;2022-08-19T05:02:24;20.10;99.90
2849;DHT22;59355;52.416;13.412;2022-08-19T05:05:10;20.10;99.90
2849;DHT22;59355;52.416;13.412;2022-08-19T05:07:57;20.20;99.90
2849;DHT22;59355;52.416;13.412;2022-08-19T05:10:43;20.30;99.90
2849;DHT22;59355;52.416;13.412;2022-08-19T05:13:30;20.30;99.90
2849;DHT22;59355;52.416;13.412;2022-08-19T05:16:19;20.30;99.90
2849;DHT22;59355;52.416;13.412;2022-08-19T05:19:06;20.40;99.90
2849;DHT22;59355;52.416;13.412;2022-08-19T05:22:11;20.40;99.90
2849;DHT22;59355;52.416;13.412;2022-08-19T05:25:19;20.40;99.90
2849;DHT22;59355;52.416;13.412;2022-08-19T05:28:05;20.50;99.90
2849;DHT22;59355;52.416;13.412;2022-08-19T05:30:51;20.60;99.90
2849;DHT22;59355;52.416;13.412;2022-08-19T05:33:38;20.70;99.90
2849;DHT22;59355;52.416;13.412;2022-08-19T05:36:26;20.70;99.90
2849;DHT22;59355;52.416;13.412;2022-08-19T05:39:15;20.80;99.90
2849;DHT22;59355;52.416;13.412;2022-08-19T05:42:06;20.80;99.90
2849;DHT22;59355;52.416;13.412;2022-08-19T05:44:53;20.70;99.90
2849;DHT22;59355;52.416;13.412;2022-08-19T05:47:39;20.80;99.90
2849;DHT22;59355;52.416;13.412;2022-08-19T05:50:25;20.70;99.90
2849;DHT22;59355;52.416;13.412;2022-08-19T05:53:12;20.80;99.90
2849;DHT22;59355;52.416;13.412;2022-08-19T05:56:04;20.90;99.90
2849;DHT22;59355;52.416;13.412;2022-08-19T05:58:51;20.90;99.90
2849;DHT22;59355;52.416;13.412;2022-08-19T06:01:40;20.80;99.90
2849;DHT22;59355;52.416;13.412;2022-08-19T06:04:27;20.90;99.90
2849;DHT22;59355;52.416;13.412;2022-08-19T06:07:13;20.80;99.90
2849;DHT22;59355;52.416;13.412;2022-08-19T06:10:02;20.90;99.90
2849;DHT22;59355;52.416;13.412;2022-08-19T06:12:49;20.90;99.90
2849;DHT22;59355;52.416;13.412;2022-08-19T06:15:35;20.90;99.90
2849;DHT22;59355;52.416;13.412;2022-08-19T06:18:21;21.00;99.90
2849;DHT22;59355;52.416;13.412;2022-08-19T06:21:07;21.00;99.90
2849;DHT22;59355;52.416;13.412;2022-08-19T06:23:55;21.10;99.90
2849;DHT22;59355;52.416;13.412;2022-08-19T06:26:43;21.10;99.90
2849;DHT22;59355;52.416;13.412;2022-08-19T06:29:30;21.10;99.90
2849;DHT22;59355;52.416;13.412;2022-08-19T06:32:18;21.20;99.90
2849;DHT22;59355;52.416;13.412;2022-08-19T06:35:07;21.40;99.90
2849;DHT22;59355;52.416;13.412;2022-08-19T06:37:54;21.30;99.90
2849;DHT22;59355;52.416;13.412;2022-08-19T06:40:40;21.40;99.90
2849;DHT22;59355;52.416;13.412;2022-08-19T06:43:26;21.40;99.90
2849;DHT22;59355;52.416;13.412;2022-08-19T06:46:14;21.40;99.90
2849;DHT22;59355;52.416;13.412;2022-08-19T06:49:01;21.40;99.90
2849;DHT22;59355;52.416;13.412;2022-08-19T06:51:48;21.40;99.90
2849;DHT22;59355;52.416;13.412;2022-08-19T06:54:35;21.40;99.90
2849;DHT22;59355;52.416;13.412;2022-08-19T06:57:23;21.40;99.90
2849;DHT22;59355;52.416;13.412;2022-08-19T07:00:10;21.40;99.90
2849;DHT22;59355;52.416;13.412;2022-08-19T07:02:59;21.50;99.90
2849;DHT22;59355;52.416;13.412;2022-08-19T07:05:46;21.60;99.90
2849;DHT22;59355;52.416;13.412;2022-08-19T07:08:33;21.60;99.90
2849;DHT22;59355;52.416;13.412;2022-08-19T07:11:19;21.70;99.90
2849;DHT22;59355;52.416;13.412;2022-08-19T07:14:07;21.80;99.90
2849;DHT22;59355;52.416;13.412;2022-08-19T07:16:55;21.90;99.90
2849;DHT22;59355;52.416;13.412;2022-08-19T07:19:42;22.00;99.90
2849;DHT22;59355;52.416;13.412;2022-08-19T07:22:29;22.00;99.90
2849;DHT22;59355;52.416;13.412;2022-08-19T07:25:15;22.00;99.90
2849;DHT22;59355;52.416;13.412;2022-08-19T07:28:04;22.00;99.90
2849;DHT22;59355;52.416;13.412;2022-08-19T07:30:50;22.00;99.90
2849;DHT22;59355;52.416;13.412;2022-08-19T07:33:37;22.10;99.90
2849;DHT22;59355;52.416;13.412;2022-08-19T07:36:26;22.10;99.90
2849;DHT22;59355;52.416;13.412;2022-08-19T07:39:29;22.20;99.90
2849;DHT22;59355;52.416;13.412;2022-08-19T07:42:15;22.30;99.90
2849;DHT22;59355;52.416;13.412;2022-08-19T07:45:07;22.30;99.90
2849;DHT22;59355;52.416;13.412;2022-08-19T07:47:54;22.30;99.90
2849;DHT22;59355;52.416;13.412;2022-08-19T07:50:40;22.40;99.90
2849;DHT22;59355;52.416;13.412;2022-08-19T07:53:26;22.50;99.90
2849;DHT22;59355;52.416;13.412;2022-08-19T07:56:14;22.60;99.90
2849;DHT22;59355;52.416;13.412;2022-08-19T07:59:00;22.60;99.90
2849;DHT22;59355;52.416;13.412;2022-08-19T08:01:47;22.70;99.90
2849;DHT22;59355;52.416;13.412;2022-08-19T08:04:33;22.70;99.90
2849;DHT22;59355;52.416;13.412;2022-08-19T08:07:38;22.70;99.90
2849;DHT22;59355;52.416;13.412;2022-08-19T08:11:00;22.60;99.90
2849;DHT22;59355;52.416;13.412;2022-08-19T08:13:47;22.40;99.90
2849;DHT22;59355;52.416;13.412;2022-08-19T08:16:38;22.40;99.90
2849;DHT22;59355;52.416;13.412;2022-08-19T08:19:26;22.40;99.90
2849;DHT22;59355;52.416;13.412;2022-08-19T08:22:15;22.40;99.90
2849;DHT22;59355;52.416;13.412;2022-08-19T08:25:22;22.50;99.90
2849;DHT22;59355;52.416;13.412;2022-08-19T08:28:09;22.40;99.90
2849;DHT22;59355;52.416;13.412;2022-08-19T08:30:57;22.40;99.90
2849;DHT22;59355;52.416;13.412;2022-08-19T08:33:43;22.70;99.90
2849;DHT22;59355;52.416;13.412;2022-08-19T08:36:29;22.90;99.90
2849;DHT22;59355;52.416;13.412;2022-08-19T08:39:20;23.00;99.90
2849;DHT22;59355;52.416;13.412;2022-08-19T08:42:18;23.10;99.90
2849;DHT22;59355;52.416;13.412;2022-08-19T08:45:13;22.90;99.90
2849;DHT22;59355;52.416;13.412;2022-08-19T08:48:13;22.90;99.90
2849;DHT22;59355;52.416;13.412;2022-08-19T08:51:03;22.90;99.90
2849;DHT22;59355;52.416;13.412;2022-08-19T08:53:51;23.10;99.90
2849;DHT22;59355;52.416;13.412;2022-08-19T08:56:41;23.20;99.90
2849;DHT22;59355;52.416;13.412;2022-08-19T08:59:30;23.20;99.90
2849;DHT22;59355;52.416;13.412;2022-08-19T09:02:18;23.30;99.90
2849;DHT22;59355;52.416;13.412;2022-08-19T09:05:05;23.30;99.90
2849;DHT22;59355;52.416;13.412;2022-08-19T09:08:13;23.30;99.90
2849;DHT22;59355;52.416;13.412;2022-08-19T09:11:08;23.40;99.90
2849;DHT22;59355;52.416;13.412;2022-08-19T09:16:43;23.50;99.90
2849;DHT22;59355;52.416;13.412;2022-08-19T09:19:30;23.60;99.90
2849;DHT22;59355;52.416;13.412;2022-08-19T09:22:16;23.70;99.90
2849;DHT22;59355;52.416;13.412;2022-08-19T09:25:04;23.70;99.90
2849;DHT22;59355;52.416;13.412;2022-08-19T09:27:52;23.70;99.90
2849;DHT22;59355;52.416;13.412;2022-08-19T09:30:40;23.60;99.90
2849;DHT22;59355;52.416;13.412;2022-08-19T09:33:27;23.60;99.90
2849;DHT22;59355;52.416;13.412;2022-08-19T09:36:16;23.60;99.90
2849;DHT22;59355;52.416;13.412;2022-08-19T09:39:04;23.70;99.90
2849;DHT22;59355;52.416;13.412;2022-08-19T09:41:50;23.70;99.90
2849;DHT22;59355;52.416;13.412;2022-08-19T09:44:36;23.80;99.90
2849;DHT22;59355;52.416;13.412;2022-08-19T09:47:23;23.70;99.90
2849;DHT22;59355;52.416;13.412;2022-08-19T09:50:11;23.60;99.90
2849;DHT22;59355;52.416;13.412;2022-08-19T09:52:57;23.50;99.90
2849;DHT22;59355;52.416;13.412;2022-08-19T09:55:44;23.40;99.90
2849;DHT22;59355;52.416;13.412;2022-08-19T09:58:32;23.20;99.90
2849;DHT22;59355;52.416;13.412;2022-08-19T10:01:21;23.40;99.90
2849;DHT22;59355;52.416;13.412;2022-08-19T10:04:08;23.30;99.90
2849;DHT22;59355;52.416;13.412;2022-08-19T10:06:55;23.50;99.90
2849;DHT22;59355;52.416;13.412;2022-08-19T10:09:42;23.50;99.90
2849;DHT22;59355;52.416;13.412;2022-08-19T10:12:28;23.60;99.90
2849;DHT22;59355;52.416;13.412;2022-08-19T10:15:15;23.70;99.90
2849;DHT22;59355;52.416;13.412;2022-08-19T10:18:02;23.70;99.90
2849;DHT22;59355;52.416;13.412;2022-08-19T10:20:49;23.70;99.90
2849;DHT22;59355;52.416;13.412;2022-08-19T10:23:38;23.70;99.90
2849;DHT22;59355;52.416;13.412;2022-08-19T10:26:29;23.50;99.90
2849;DHT22;59355;52.416;13.412;2022-08-19T10:29:15;23.60;99.90
2849;DHT22;59355;52.416;13.412;2022-08-19T10:32:04;23.60;99.90
2849;DHT22;59355;52.416;13.412;2022-08-19T10:34:51;23.30;99.90
2849;DHT22;59355;52.416;13.412;2022-08-19T10:37:38;23.20;99.90
2849;DHT22;59355;52.416;13.412;2022-08-19T10:40:26;23.00;99.90
2849;DHT22;59355;52.416;13.412;2022-08-19T10:43:12;22.80;99.90
2849;DHT22;59355;52.416;13.412;2022-08-19T10:45:59;22.80;99.90
2849;DHT22;59355;52.416;13.412;2022-08-19T10:48:45;22.80;99.90
2849;DHT22;59355;52.416;13.412;2022-08-19T10:51:32;22.80;99.90
2849;DHT22;59355;52.416;13.412;2022-08-19T10:54:37;22.90;99.90
2849;DHT22;59355;52.416;13.412;2022-08-19T10:57:41;22.90;99.90
2849;DHT22;59355;52.416;13.412;2022-08-19T11:00:28;22.80;99.90
2849;DHT22;59355;52.416;13.412;2022-08-19T11:03:15;22.80;99.90
2849;DHT22;59355;52.416;13.412;2022-08-19T11:06:06;22.80;99.90
2849;DHT22;59355;52.416;13.412;2022-08-19T11:08:54;22.80;99.90
2849;DHT22;59355;52.416;13.412;2022-08-19T11:11:41;22.80;99.90
2849;DHT22;59355;52.416;13.412;2022-08-19T11:14:28;22.80;99.90
2849;DHT22;59355;52.416;13.412;2022-08-19T11:17:16;22.80;99.90
2849;DHT22;59355;52.416;13.412;2022-08-19T11:20:03;22.80;99.90
2849;DHT22;59355;52.416;13.412;2022-08-19T11:22:52;22.80;99.90
2849;DHT22;59355;52.416;13.412;2022-08-19T11:25:39;22.80;99.90
2849;DHT22;59355;52.416;13.412;2022-08-19T11:28:25;22.80;99.90
2849;DHT22;59355;52.416;13.412;2022-08-19T11:31:14;22.80;99.90
2849;DHT22;59355;52.416;13.412;2022-08-19T11:34:05;22.80;99.90
2849;DHT22;59355;52.416;13.412;2022-08-19T11:36:52;22.90;99.90
2849;DHT22;59355;52.416;13.412;2022-08-19T11:39:40;22.90;99.90
2849;DHT22;59355;52.416;13.412;2022-08-19T11:42:26;22.90;99.90
2849;DHT22;59355;52.416;13.412;2022-08-19T11:45:31;22.80;99.90
2849;DHT22;59355;52.416;13.412;2022-08-19T11:48:17;23.00;99.90
2849;DHT22;59355;52.416;13.412;2022-08-19T11:51:13;23.00;99.90
2849;DHT22;59355;52.416;13.412;2022-08-19T11:54:00;22.90;99.90
2849;DHT22;59355;52.416;13.412;2022-08-19T11:56:47;22.90;99.90
2849;DHT22;59355;52.416;13.412;2022-08-19T11:59:34;22.80;99.90
2849;DHT22;59355;52.416;13.412;2022-08-19T12:02:21;22.90;99.90
2849;DHT22;59355;52.416;13.412;2022-08-19T12:05:08;22.90;99.90
2849;DHT22;59355;52.416;13.412;2022-08-19T12:07:54;23.00;99.90
2849;DHT22;59355;52.416;13.412;2022-08-19T12:10:41;23.10;99.90
2849;DHT22;59355;52.416;13.412;2022-08-19T12:13:30;23.30;99.90
2849;DHT22;59355;52.416;13.412;2022-08-19T12:16:27;23.40;99.90
2849;DHT22;59355;52.416;13.412;2022-08-19T12:19:13;23.50;99.90
2849;DHT22;59355;52.416;13.412;2022-08-19T12:22:00;23.50;99.90
2849;DHT22;59355;52.416;13.412;2022-08-19T12:24:48;23.30;99.90
2849;DHT22;59355;52.416;13.412;2022-08-19T12:27:37;23.20;99.90
2849;DHT22;59355;52.416;13.412;2022-08-19T12:30:25;23.20;99.90
2849;DHT22;59355;52.416;13.412;2022-08-19T12:33:11;23.30;99.90
2849;DHT22;59355;52.416;13.412;2022-08-19T12:36:04;23.30;99.90
2849;DHT22;59355;52.416;13.412;2022-08-19T12:38:51;23.40;99.90
2849;DHT22;59355;52.416;13.412;2022-08-19T12:41:38;23.50;99.90
2849;DHT22;59355;52.416;13.412;2022-08-19T12:44:25;23.70;99.90
2849;DHT22;59355;52.416;13.412;2022-08-19T12:47:12;23.90;99.90
2849;DHT22;59355;52.416;13.412;2022-08-19T12:50:03;24.00;99.90
2849;DHT22;59355;52.416;13.412;2022-08-19T12:52:50;24.20;99.90
2849;DHT22;59355;52.416;13.412;2022-08-19T12:55:36;24.20;99.90
2849;DHT22;59355;52.416;13.412;2022-08-19T12:58:23;24.20;99.90
2849;DHT22;59355;52.416;13.412;2022-08-19T13:01:12;24.30;99.90
2849;DHT22;59355;52.416;13.412;2022-08-19T13:03:59;24.50;99.90
2849;DHT22;59355;52.416;13.412;2022-08-19T13:06:45;24.60;99.90
2849;DHT22;59355;52.416;13.412;2022-08-19T13:09:33;24.50;99.90
2849;DHT22;59355;52.416;13.412;2022-08-19T13:12:19;24.40;99.90
2849;DHT22;59355;52.416;13.412;2022-08-19T13:15:06;24.30;99.90
2849;DHT22;59355;52.416;13.412;2022-08-19T13:17:54;24.00;99.90
2849;DHT22;59355;52.416;13.412;2022-08-19T13:20:41;24.00;99.90
2849;DHT22;59355;52.416;13.412;2022-08-19T13:23:27;23.80;99.90
2849;DHT22;59355;52.416;13.412;2022-08-19T13:26:14;23.80;99.90
2849;DHT22;59355;52.416;13.412;2022-08-19T13:29:01;23.60;99.90
2849;DHT22;59355;52.416;13.412;2022-08-19T13:32:06;23.60;99.90
2849;DHT22;59355;52.416;13.412;2022-08-19T13:35:10;23.50;99.90
2849;DHT22;59355;52.416;13.412;2022-08-19T13:37:57;23.40;99.90
2849;DHT22;59355;52.416;13.412;2022-08-19T13:40:43;23.40;99.90
2849;DHT22;59355;52.416;13.412;2022-08-19T13:43:30;23.40;99.90
2849;DHT22;59355;52.416;13.412;2022-08-19T13:46:17;23.50;99.90
2849;DHT22;59355;52.416;13.412;2022-08-19T13:49:03;23.50;99.90
2849;DHT22;59355;52.416;13.412;2022-08-19T13:51:50;23.60;99.90
2849;DHT22;59355;52.416;13.412;2022-08-19T13:54:36;23.70;99.90
2849;DHT22;59355;52.416;13.412;2022-08-19T13:57:22;23.80;99.90
2849;DHT22;59355;52.416;13.412;2022-08-19T14:00:13;23.90;99.90
2849;DHT22;59355;52.416;13.412;2022-08-19T14:03:00;23.90;99.90
2849;DHT22;59355;52.416;13.412;2022-08-19T14:05:46;24.00;99.90
2849;DHT22;59355;52.416;13.412;2022-08-19T14:08:33;24.00;99.90
2849;DHT22;59355;52.416;13.412;2022-08-19T14:11:19;24.20;99.90
2849;DHT22;59355;52.416;13.412;2022-08-19T14:14:05;24.20;99.90
2849;DHT22;59355;52.416;13.412;2022-08-19T14:16:52;24.20;99.90
2849;DHT22;59355;52.416;13.412;2022-08-19T14:19:39;24.30;99.90
2849;DHT22;59355;52.416;13.412;2022-08-19T14:22:25;24.30;99.90
2849;DHT22;59355;52.416;13.412;2022-08-19T14:25:15;24.10;99.90
2849;DHT22;59355;52.416;13.412;2022-08-19T14:28:01;24.10;99.90
2849;DHT22;59355;52.416;13.412;2022-08-19T14:30:48;23.90;99.90
2849;DHT22;59355;52.416;13.412;2022-08-19T14:33:34;24.00;99.90
2849;DHT22;59355;52.416;13.412;2022-08-19T14:36:21;24.10;99.90
2849;DHT22;59355;52.416;13.412;2022-08-19T14:39:08;24.20;99.90
2849;DHT22;59355;52.416;13.412;2022-08-19T14:41:55;24.10;99.90
2849;DHT22;59355;52.416;13.412;2022-08-19T14:44:43;24.20;99.90
2849;DHT22;59355;52.416;13.412;2022-08-19T14:47:29;24.20;99.90
2849;DHT22;59355;52.416;13.412;2022-08-19T14:50:15;24.20;99.90
2849;DHT22;59355;52.416;13.412;2022-08-19T14:53:07;24.30;99.90
2849;DHT22;59355;52.416;13.412;2022-08-19T14:55:54;24.10;99.90
2849;DHT22;59355;52.416;13.412;2022-08-19T14:58:41;24.00;99.90
2849;DHT22;59355;52.416;13.412;2022-08-19T15:01:28;23.90;99.90
2849;DHT22;59355;52.416;13.412;2022-08-19T15:04:14;23.70;99.90
2849;DHT22;59355;52.416;13.412;2022-08-19T15:07:01;23.70;99.90
2849;DHT22;59355;52.416;13.412;2022-08-19T15:09:50;23.60;99.90
2849;DHT22;59355;52.416;13.412;2022-08-19T15:12:38;23.50;99.90
2849;DHT22;59355;52.416;13.412;2022-08-19T15:15:26;23.50;99.90
2849;DHT22;59355;52.416;13.412;2022-08-19T15:18:14;23.40;99.90
2849;DHT22;59355;52.416;13.412;2022-08-19T15:21:01;23.30;99.90
2849;DHT22;59355;52.416;13.412;2022-08-19T15:23:49;23.40;99.90
2849;DHT22;59355;52.416;13.412;2022-08-19T15:26:35;23.30;99.90
2849;DHT22;59355;52.416;13.412;2022-08-19T15:29:22;23.30;99.90
2849;DHT22;59355;52.416;13.412;2022-08-19T15:32:10;23.20;99.90
2849;DHT22;59355;52.416;13.412;2022-08-19T15:34:56;23.20;99.90
2849;DHT22;59355;52.416;13.412;2022-08-19T15:37:42;23.10;99.90
2849;DHT22;59355;52.416;13.412;2022-08-19T15:40:29;23.00;99.90
2849;DHT22;59355;52.416;13.412;2022-08-19T15:43:17;23.00;99.90
2849;DHT22;59355;52.416;13.412;2022-08-19T15:46:04;23.00;99.90
2849;DHT22;59355;52.416;13.412;2022-08-19T15:48:51;22.90;99.90
2849;DHT22;59355;52.416;13.412;2022-08-19T15:51:40;22.90;99.90
2849;DHT22;59355;52.416;13.412;2022-08-19T15:54:27;22.80;99.90
2849;DHT22;59355;52.416;13.412;2022-08-19T15:57:14;22.80;99.90
2849;DHT22;59355;52.416;13.412;2022-08-19T16:00:06;22.70;99.90
2849;DHT22;59355;52.416;13.412;2022-08-19T16:03:13;22.70;99.90
2849;DHT22;59355;52.416;13.412;2022-08-19T16:06:18;22.70;99.90
2849;DHT22;59355;52.416;13.412;2022-08-19T16:09:10;22.60;99.90
2849;DHT22;59355;52.416;13.412;2022-08-19T16:12:00;22.60;99.90
2849;DHT22;59355;52.416;13.412;2022-08-19T16:14:47;22.60;99.90
2849;DHT22;59355;52.416;13.412;2022-08-19T16:17:34;22.60;99.90
2849;DHT22;59355;52.416;13.412;2022-08-19T16:20:21;22.70;99.90
2849;DHT22;59355;52.416;13.412;2022-08-19T16:23:07;22.70;99.90
2849;DHT22;59355;52.416;13.412;2022-08-19T16:25:53;22.70;99.90
2849;DHT22;59355;52.416;13.412;2022-08-19T16:28:40;22.80;99.90
2849;DHT22;59355;52.416;13.412;2022-08-19T16:31:27;22.80;99.90
2849;DHT22;59355;52.416;13.412;2022-08-19T16:34:14;22.80;99.90
2849;DHT22;59355;52.416;13.412;2022-08-19T16:37:00;22.90;99.90
2849;DHT22;59355;52.416;13.412;2022-08-19T16:39:47;22.90;99.90
2849;DHT22;59355;52.416;13.412;2022-08-19T16:42:33;22.80;99.90
2849;DHT22;59355;52.416;13.412;2022-08-19T16:45:20;22.60;99.90
2849;DHT22;59355;52.416;13.412;2022-08-19T16:48:06;22.50;99.90
2849;DHT22;59355;52.416;13.412;2022-08-19T16:50:53;22.40;99.90
2849;DHT22;59355;52.416;13.412;2022-08-19T16:53:40;22.40;99.90
2849;DHT22;59355;52.416;13.412;2022-08-19T16:56:27;22.50;99.90
2849;DHT22;59355;52.416;13.412;2022-08-19T16:59:14;22.40;99.90
2849;DHT22;59355;52.416;13.412;2022-08-19T17:02:01;22.30;99.90
2849;DHT22;59355;52.416;13.412;2022-08-19T17:04:48;22.30;99.90
2849;DHT22;59355;52.416;13.412;2022-08-19T17:07:36;22.20;99.90
2849;DHT22;59355;52.416;13.412;2022-08-19T17:10:22;22.20;99.90
2849;DHT22;59355;52.416;13.412;2022-08-19T17:13:09;22.00;99.90
2849;DHT22;59355;52.416;13.412;2022-08-19T17:15:56;22.00;99.90
2849;DHT22;59355;52.416;13.412;2022-08-19T17:18:42;22.00;99.90
2849;DHT22;59355;52.416;13.412;2022-08-19T17:21:30;21.90;99.90
2849;DHT22;59355;52.416;13.412;2022-08-19T17:24:17;21.80;99.90
2849;DHT22;59355;52.416;13.412;2022-08-19T17:27:03;21.80;99.90
2849;DHT22;59355;52.416;13.412;2022-08-19T17:29:50;21.70;99.90
2849;DHT22;59355;52.416;13.412;2022-08-19T17:32:37;21.60;99.90
2849;DHT22;59355;52.416;13.412;2022-08-19T17:35:24;21.60;99.90
2849;DHT22;59355;52.416;13.412;2022-08-19T17:38:15;21.60;99.90
2849;DHT22;59355;52.416;13.412;2022-08-19T17:41:02;21.50;99.90
2849;DHT22;59355;52.416;13.412;2022-08-19T17:43:52;21.50;99.90
2849;DHT22;59355;52.416;13.412;2022-08-19T17:46:38;21.60;99.90
2849;DHT22;59355;52.416;13.412;2022-08-19T17:49:24;21.60;99.90
2849;DHT22;59355;52.416;13.412;2022-08-19T17:52:11;21.60;99.90
2849;DHT22;59355;52.416;13.412;2022-08-19T17:54:57;21.60;99.90
2849;DHT22;59355;52.416;13.412;2022-08-19T17:57:44;21.60;99.90
2849;DHT22;59355;52.416;13.412;2022-08-19T18:00:32;21.60;99.90
2849;DHT22;59355;52.416;13.412;2022-08-19T18:03:18;21.60;99.90
2849;DHT22;59355;52.416;13.412;2022-08-19T18:06:05;21.50;99.90
2849;DHT22;59355;52.416;13.412;2022-08-19T18:08:51;21.60;99.90
2849;DHT22;59355;52.416;13.412;2022-08-19T18:11:37;21.60;99.90
2849;DHT22;59355;52.416;13.412;2022-08-19T18:14:30;21.60;99.90
2849;DHT22;59355;52.416;13.412;2022-08-19T18:17:19;21.60;99.90
2849;DHT22;59355;52.416;13.412;2022-08-19T18:20:10;21.50;99.90
2849;DHT22;59355;52.416;13.412;2022-08-19T18:22:56;21.50;99.90
2849;DHT22;59355;52.416;13.412;2022-08-19T18:25:44;21.50;99.90
2849;DHT22;59355;52.416;13.412;2022-08-19T18:28:31;21.50;99.90
2849;DHT22;59355;52.416;13.412;2022-08-19T18:31:18;21.50;99.90
2849;DHT22;59355;52.416;13.412;2022-08-19T18:34:05;21.50;99.90
2849;DHT22;59355;52.416;13.412;2022-08-19T18:36:52;21.40;99.90
2849;DHT22;59355;52.416;13.412;2022-08-19T18:39:39;21.40;99.90
2849;DHT22;59355;52.416;13.412;2022-08-19T18:42:44;21.40;99.90
2849;DHT22;59355;52.416;13.412;2022-08-19T18:45:50;21.40;99.90
2849;DHT22;59355;52.416;13.412;2022-08-19T18:48:55;21.40;99.90
2849;DHT22;59355;52.416;13.412;2022-08-19T18:51:51;21.30;99.90